Time;durP1;ratioP1;P1;durP2;ratioP2;P2;SDS_P1;SDS_P2;PMS_P1;PMS_P2;Temp;Humidity;BMP_temperature;BMP_pressure;BME280_temperature;BME280_humidity;BME280_pressure;Samples;Min_cycle;Max_cycle;Signal;HPM_P1;HPM_P2
2021/10/22 00:00:38;;;;;;;10.60;7.53;;;;;;;15.25;53.45;97322.06;3406601;29;20051;-77
2021/10/22 00:02:18;;;;;;;12.18;7.97;;;;;;;15.23;53.55;97300.13;3405866;29;20139;-77
2021/10/22 00:03:59;;;;;;;11.32;8.18;;;;;;;15.25;53.53;97327.44;3401581;29;20047;-77
2021/10/22 00:05:40;;;;;;;14.35;6.97;;;;;;;15.23;53.97;97324.28;3403870;29;20178;-77
2021/10/22 00:07:20;;;;;;;17.05;7.63;;;;;;;15.26;53.69;97358.59;3402090;29;20044;-76
2021/10/22 00:09:01;;;;;;;12.65;7.25;;;;;;;15.35;53.75;97339.19;3402132;29;20050;-75
2021/10/22 00:10:42;;;;;;;10.05;7.28;;;;;;;15.38;53.32;97335.91;3402421;29;20042;-77
2021/10/22 00:12:23;;;;;;;7.95;6.75;;;;;;;15.37;53.29;97329.75;3400979;29;20542;-76
2021/10/22 00:14:04;;;;;;;8.70;6.43;;;;;;;15.32;53.28;97318.28;3398702;29;20051;-76
2021/10/22 00:15:45;;;;;;;11.10;6.57;;;;;;;15.27;53.33;97319.13;3402116;29;20055;-77
2021/10/22 00:17:26;;;;;;;10.57;6.32;;;;;;;15.25;53.41;97305.97;3402764;29;20047;-78
2021/10/22 00:19:06;;;;;;;15.32;7.65;;;;;;;15.27;53.56;97314.56;3402534;29;20051;-76
2021/10/22 00:20:48;;;;;;;9.52;7.40;;;;;;;15.26;53.50;97350.53;3402085;29;20052;-77
2021/10/22 00:22:28;;;;;;;13.05;7.45;;;;;;;15.24;53.40;97335.78;3399388;29;20067;-77
2021/10/22 00:24:09;;;;;;;9.77;7.43;;;;;;;15.24;53.59;97331.22;3402846;29;20590;-76
2021/10/22 00:25:51;;;;;;;9.80;7.28;;;;;;;15.23;53.88;97332.31;3402825;29;20055;-79
2021/10/22 00:27:32;;;;;;;13.75;7.20;;;;;;;15.27;54.14;97327.97;3402876;29;20039;-75
2021/10/22 00:29:14;;;;;;;9.88;7.68;;;;;;;15.34;53.83;97341.06;3402338;29;20054;-76
2021/10/22 00:30:56;;;;;;;13.77;7.15;;;;;;;15.37;53.64;97339.69;3402142;29;20039;-77
2021/10/22 00:32:37;;;;;;;10.98;6.68;;;;;;;15.34;53.63;97351.00;3401610;29;20069;-75
2021/10/22 00:34:17;;;;;;;11.00;7.35;;;;;;;15.31;53.67;97338.97;3401947;29;20099;-76
2021/10/22 00:35:58;;;;;;;9.85;6.97;;;;;;;15.28;53.85;97339.50;3402087;29;20188;-75
2021/10/22 00:37:39;;;;;;;13.13;7.05;;;;;;;15.25;53.55;97351.59;3400862;29;20073;-75
2021/10/22 00:39:20;;;;;;;10.65;6.70;;;;;;;15.18;53.78;97353.00;3401703;29;20047;-76
2021/10/22 00:41:01;;;;;;;10.73;6.87;;;;;;;15.14;53.88;97343.94;3401816;29;20499;-74
2021/10/22 00:42:42;;;;;;;10.68;7.40;;;;;;;15.11;53.79;97341.81;3402012;29;20095;-76
2021/10/22 00:44:22;;;;;;;12.20;7.22;;;;;;;15.07;53.66;97309.38;3401950;29;20132;-75
2021/10/22 00:46:03;;;;;;;10.05;6.82;;;;;;;15.06;53.65;97323.88;3401741;29;20189;-75
2021/10/22 00:47:44;;;;;;;11.18;7.10;;;;;;;15.04;53.98;97332.19;3401811;29;20051;-76
2021/10/22 00:49:24;;;;;;;11.57;7.15;;;;;;;15.04;53.99;97334.09;3401947;29;20063;-74
2021/10/22 00:51:08;;;;;;;13.52;7.85;;;;;;;15.06;54.08;97315.84;3401918;29;20415;-75
2021/10/22 00:52:48;;;;;;;13.68;7.65;;;;;;;15.08;53.98;97335.13;3400574;29;20043;-75
2021/10/22 00:54:29;;;;;;;10.73;6.75;;;;;;;15.03;54.06;97335.97;3398036;29;20043;-75
2021/10/22 00:56:10;;;;;;;10.15;7.60;;;;;;;14.97;54.21;97350.53;3401536;29;20507;-76
2021/10/22 00:57:51;;;;;;;9.93;7.35;;;;;;;15.06;54.28;97361.44;3401982;29;20043;-74
2021/10/22 00:59:32;;;;;;;13.07;7.07;;;;;;;14.98;53.96;97316.44;3400851;29;20523;-77
2021/10/22 01:01:13;;;;;;;21.27;8.25;;;;;;;15.11;53.95;97349.88;3385057;29;20070;-75
2021/10/22 01:02:54;;;;;;;10.85;7.38;;;;;;;15.04;53.75;97334.88;3398476;29;20050;-75
2021/10/22 01:04:34;;;;;;;11.38;6.75;;;;;;;15.06;54.13;97305.09;3401520;29;20103;-78
2021/10/22 01:06:15;;;;;;;10.30;6.93;;;;;;;15.10;54.18;97327.63;3400526;29;20389;-77
2021/10/22 01:07:56;;;;;;;10.85;7.82;;;;;;;15.14;54.17;97341.25;3401418;29;20047;-77
2021/10/22 01:09:36;;;;;;;12.25;7.50;;;;;;;15.11;54.12;97342.63;3400717;29;20516;-75
2021/10/22 01:11:17;;;;;;;10.25;7.00;;;;;;;15.12;54.50;97321.94;3401257;29;20419;-77
2021/10/22 01:12:58;;;;;;;18.05;7.28;;;;;;;15.19;54.38;97339.31;3401506;29;20101;-77
2021/10/22 01:14:40;;;;;;;10.95;6.75;;;;;;;15.24;54.08;97317.81;3374341;29;20048;-75
2021/10/22 01:16:23;;;;;;;13.63;7.60;;;;;;;15.28;53.77;97293.88;3396589;29;20415;-76
2021/10/22 01:18:03;;;;;;;10.10;7.53;;;;;;;15.22;53.73;97306.56;3401724;29;20073;-76
2021/10/22 01:19:44;;;;;;;10.32;6.85;;;;;;;15.13;53.73;97300.22;3401523;29;20384;-76
2021/10/22 01:21:24;;;;;;;10.95;7.72;;;;;;;15.13;54.19;97316.31;3401252;29;20393;-75
2021/10/22 01:23:05;;;;;;;23.67;7.25;;;;;;;15.07;53.97;97308.56;3401548;29;20048;-77
2021/10/22 01:24:47;;;;;;;15.07;6.97;;;;;;;15.05;54.07;97324.97;3401271;29;20411;-76
2021/10/22 01:26:29;;;;;;;11.77;7.32;;;;;;;15.02;54.23;97322.84;3401662;29;20052;-77
2021/10/22 01:28:10;;;;;;;;;;;;;;;15.12;54.06;97346.88;3401973;29;20054;-75
2021/10/22 01:29:51;;;;;;;11.68;7.80;;;;;;;15.07;53.91;97346.13;3401195;29;19923;-75
2021/10/22 01:31:32;;;;;;;13.70;7.80;;;;;;;15.01;54.23;97327.41;3401251;29;20043;-75
2021/10/22 01:33:17;;;;;;;9.15;7.22;;;;;;;15.02;54.12;97339.75;3401458;29;20082;-74
2021/10/22 01:34:58;;;;;;;10.82;7.35;;;;;;;15.01;54.14;97348.06;3401519;29;20088;-75
2021/10/22 01:36:39;;;;;;;10.05;7.25;;;;;;;15.00;53.94;97341.91;3401824;29;20047;-73
2021/10/22 01:38:25;;;;;;;11.18;7.80;;;;;;;14.97;54.24;97330.91;3401231;29;20050;-73
2021/10/22 01:40:08;;;;;;;9.52;7.43;;;;;;;14.94;54.26;97332.28;3401276;29;20389;-73
2021/10/22 01:41:49;;;;;;;11.10;7.93;;;;;;;14.92;54.19;97347.06;3401269;29;20050;-76
2021/10/22 01:43:30;;;;;;;13.00;7.78;;;;;;;14.89;54.37;97344.94;3401509;29;20040;-74
2021/10/22 01:45:11;;;;;;;10.93;8.00;;;;;;;14.86;54.33;97354.34;3401420;29;20099;-76
2021/10/22 01:46:53;;;;;;;11.75;7.88;;;;;;;14.80;54.59;97352.78;3403834;29;20043;-76
2021/10/22 01:48:34;;;;;;;11.48;7.85;;;;;;;14.77;54.45;97350.69;3402987;29;20043;-74
2021/10/22 01:50:15;;;;;;;10.27;7.23;;;;;;;14.74;54.59;97338.63;3403720;29;20040;-74
2021/10/22 01:51:56;;;;;;;11.77;7.13;;;;;;;14.73;54.57;97333.53;3389652;29;20139;-74
2021/10/22 01:53:37;;;;;;;11.13;6.95;;;;;;;14.78;55.11;97336.97;3401285;29;20051;-75
2021/10/22 01:55:17;;;;;;;12.45;8.23;;;;;;;14.87;54.84;97325.63;3403131;29;20047;-73
2021/10/22 01:56:58;;;;;;;10.88;7.18;;;;;;;14.90;54.67;97325.09;3403511;29;20503;-76
2021/10/22 01:58:39;;;;;;;13.52;7.18;;;;;;;14.91;54.33;97327.50;3403712;29;20059;-74
2021/10/22 02:00:21;;;;;;;11.80;7.57;;;;;;;14.90;54.70;97325.09;3403859;29;20039;-74
2021/10/22 02:02:02;;;;;;;10.55;7.57;;;;;;;14.92;54.60;97329.09;3403828;29;20610;-75
2021/10/22 02:03:43;;;;;;;15.45;6.82;;;;;;;14.93;54.56;97346.78;3405570;29;20062;-75
2021/10/22 02:05:24;;;;;;;13.00;7.70;;;;;;;14.94;54.47;97344.91;3408281;29;20122;-74
2021/10/22 02:07:05;;;;;;;11.57;7.43;;;;;;;14.94;54.30;97332.28;3406365;29;20130;-75
2021/10/22 02:08:45;;;;;;;10.73;7.30;;;;;;;14.97;54.32;97318.34;3406167;29;20054;-74
2021/10/22 02:10:26;;;;;;;14.18;7.70;;;;;;;14.97;54.35;97329.06;3405787;29;20098;-75
2021/10/22 02:12:07;;;;;;;8.48;7.40;;;;;;;14.95;54.20;97331.22;3402632;29;20041;-74
2021/10/22 02:13:47;;;;;;;9.45;7.68;;;;;;;14.92;54.50;97321.06;3387110;29;20063;-75
2021/10/22 02:15:28;;;;;;;11.70;6.88;;;;;;;14.95;54.38;97333.09;3400959;29;20036;-75
2021/10/22 02:17:09;;;;;;;12.50;7.22;;;;;;;14.94;54.45;97337.66;3403873;29;20044;-76
2021/10/22 02:18:50;;;;;;;10.73;6.95;;;;;;;14.96;54.44;97350.78;3403730;29;20485;-76
2021/10/22 02:20:33;;;;;;;11.27;7.82;;;;;;;15.00;54.57;97349.16;3403904;29;20586;-75
2021/10/22 02:22:14;;;;;;;12.27;7.93;;;;;;;15.04;54.19;97336.78;3404115;29;20094;-74
2021/10/22 02:23:55;;;;;;;14.52;7.55;;;;;;;15.04;54.29;97339.44;3403796;29;20040;-74
2021/10/22 02:25:36;;;;;;;11.60;7.18;;;;;;;15.02;54.50;97333.56;3403547;29;20075;-72
2021/10/22 02:27:16;;;;;;;13.43;7.47;;;;;;;15.04;54.47;97334.09;3403539;29;20051;-74
2021/10/22 02:28:57;;;;;;;13.43;7.95;;;;;;;15.05;54.42;97338.38;3403572;29;20052;-74
2021/10/22 02:30:41;;;;;;;12.65;8.32;;;;;;;15.02;54.37;97350.47;3403855;29;20044;-74
2021/10/22 02:32:21;;;;;;;11.25;7.90;;;;;;;15.03;54.40;97337.88;3402380;29;20419;-75
2021/10/22 02:34:02;;;;;;;10.75;8.30;;;;;;;14.98;54.62;97354.00;3403639;29;20051;-75
2021/10/22 02:35:43;;;;;;;11.77;6.93;;;;;;;14.98;54.45;97351.31;3404089;29;20598;-77
2021/10/22 02:37:24;;;;;;;12.05;8.35;;;;;;;14.99;54.72;97347.53;3404169;29;20062;-76
2021/10/22 02:39:05;;;;;;;14.60;7.45;;;;;;;15.01;54.74;97353.44;3404116;29;20052;-76
2021/10/22 02:40:46;;;;;;;9.35;7.60;;;;;;;15.03;54.71;97340.53;3402429;29;20044;-77
2021/10/22 02:42:26;;;;;;;8.73;7.03;;;;;;;15.11;55.12;97342.63;3403442;29;20070;-76
2021/10/22 02:44:07;;;;;;;10.10;7.05;;;;;;;15.18;54.69;97340.41;3403775;29;20530;-76
2021/10/22 02:45:50;;;;;;;10.65;7.88;;;;;;;15.18;54.34;97358.38;3403674;29;20054;-75
2021/10/22 02:47:31;;;;;;;11.50;6.93;;;;;;;15.16;54.50;97350.63;3403618;29;20043;-74
2021/10/22 02:49:12;;;;;;;14.15;7.97;;;;;;;15.11;54.12;97347.19;3403714;29;20054;-75
2021/10/22 02:50:53;;;;;;;12.90;8.30;;;;;;;15.03;54.10;97357.44;3403569;29;20062;-77
2021/10/22 02:52:34;;;;;;;12.25;7.10;;;;;;;15.01;54.36;97356.13;3402542;29;20158;-76
2021/10/22 02:54:14;;;;;;;9.13;8.10;;;;;;;15.00;54.60;97354.53;3403274;29;20115;-75
2021/10/22 02:55:55;;;;;;;13.50;8.13;;;;;;;14.98;54.41;97348.63;3403195;29;20195;-77
2021/10/22 02:57:36;;;;;;;13.80;8.50;;;;;;;14.95;54.38;97349.19;3402210;29;20071;-76
2021/10/22 02:59:17;;;;;;;13.03;8.07;;;;;;;14.95;54.47;97349.19;3402985;29;20450;-76
2021/10/22 03:00:57;;;;;;;10.27;6.55;;;;;;;14.92;54.87;97341.69;3403318;29;20315;-77
2021/10/22 03:02:45;;;;;;;11.57;8.45;;;;;;;14.91;54.74;97346.25;3402000;29;20523;-74
2021/10/22 03:04:25;;;;;;;10.38;8.00;;;;;;;14.92;54.86;97349.75;3403104;29;20518;-77
2021/10/22 03:06:06;;;;;;;9.95;7.63;;;;;;;14.90;54.81;97346.56;3403580;29;20085;-75
2021/10/22 03:07:47;;;;;;;12.02;8.88;;;;;;;14.94;54.70;97352.94;3402440;29;20039;-77
2021/10/22 03:09:27;;;;;;;12.13;7.35;;;;;;;14.96;54.96;97343.53;3403442;29;20043;-77
2021/10/22 03:11:08;;;;;;;10.18;7.20;;;;;;;14.98;54.80;97349.44;3403329;29;20507;-74
2021/10/22 03:12:48;;;;;;;10.15;7.35;;;;;;;14.94;54.75;97342.22;3403230;29;20108;-76
2021/10/22 03:14:29;;;;;;;9.18;7.53;;;;;;;14.98;54.90;97348.63;3403466;29;20051;-76
2021/10/22 03:16:10;;;;;;;9.38;7.25;;;;;;;14.97;54.96;97342.47;3403346;29;20039;-76
2021/10/22 03:17:51;;;;;;;16.30;8.75;;;;;;;15.07;54.81;97346.94;3402831;29;20047;-75
2021/10/22 03:19:32;;;;;;;11.05;8.20;;;;;;;15.10;54.86;97351.75;3403173;29;20503;-75
2021/10/22 03:21:12;;;;;;;10.52;7.55;;;;;;;15.08;54.76;97348.56;3403429;29;20107;-76
2021/10/22 03:22:53;;;;;;;12.52;7.43;;;;;;;15.12;54.46;97335.38;3403258;29;20563;-75
2021/10/22 03:24:34;;;;;;;9.65;7.38;;;;;;;15.12;54.54;97335.38;3403363;29;20047;-76
2021/10/22 03:26:15;;;;;;;10.50;7.97;;;;;;;15.12;54.39;97348.78;3403424;29;20075;-76
2021/10/22 03:28:02;;;;;;;12.25;7.88;;;;;;;15.16;54.90;97334.53;3403524;29;20050;-76
2021/10/22 03:29:43;;;;;;;12.30;7.85;;;;;;;15.20;54.58;97327.50;3402287;29;20126;-77
2021/10/22 03:31:24;;;;;;;15.68;9.25;;;;;;;15.15;54.18;97335.59;3403131;29;20094;-77
2021/10/22 03:33:05;;;;;;;11.93;7.78;;;;;;;15.12;54.56;97338.84;3402852;29;20078;-76
2021/10/22 03:34:46;;;;;;;10.07;7.80;;;;;;;15.11;54.38;97339.94;3402985;29;20039;-76
2021/10/22 03:36:27;;;;;;;13.18;8.05;;;;;;;15.08;54.49;97339.72;3402079;29;20044;-76
2021/10/22 03:38:08;;;;;;;13.23;8.48;;;;;;;15.03;54.61;97340.53;3399521;29;20039;-76
2021/10/22 03:39:48;;;;;;;11.88;8.35;;;;;;;15.00;54.86;97341.91;3403906;29;20067;-75
2021/10/22 03:41:29;;;;;;;9.88;7.20;;;;;;;14.98;54.88;97321.81;3403488;29;20040;-75
2021/10/22 03:43:10;;;;;;;14.02;7.97;;;;;;;14.94;54.94;97331.50;3403133;29;20043;-80
2021/10/22 03:44:50;;;;;;;15.35;8.48;;;;;;;14.93;54.67;97329.91;3389484;29;20050;-83
2021/10/22 03:46:32;;;;;;;8.75;7.05;;;;;;;14.91;54.95;97321.31;3397353;29;20036;-80
2021/10/22 03:48:13;;;;;;;10.23;8.10;;;;;;;14.96;55.15;97329.34;3402722;29;20124;-77
2021/10/22 03:49:54;;;;;;;9.95;7.53;;;;;;;14.95;54.76;97328.53;3396878;29;20397;-79
2021/10/22 03:51:35;;;;;;;14.82;7.85;;;;;;;14.92;55.06;97318.38;3402388;29;20416;-76
2021/10/22 03:53:15;;;;;;;11.38;7.43;;;;;;;14.77;54.99;97297.03;3401882;29;20074;-79
2021/10/22 03:54:56;;;;;;;14.30;7.95;;;;;;;14.91;54.94;97324.00;3403474;29;20039;-78
2021/10/22 03:56:37;;;;;;;21.83;8.45;;;;;;;14.85;54.90;97312.53;3405344;29;20411;-79
2021/10/22 03:58:18;;;;;;;22.23;10.10;;;;;;;14.73;55.03;97307.50;3402451;29;20081;-80
2021/10/22 04:00:01;;;;;;;11.40;7.93;;;;;;;14.93;54.87;97329.91;3403822;29;20051;-76
2021/10/22 04:01:42;;;;;;;13.07;8.68;;;;;;;14.80;55.05;97304.53;3402788;29;20428;-79
2021/10/22 04:03:23;;;;;;;9.52;7.75;;;;;;;14.82;55.28;97315.78;3402822;29;20043;-80
2021/10/22 04:05:07;;;;;;;9.85;7.00;;;;;;;14.99;55.21;97336.81;3402989;29;20517;-79
2021/10/22 04:06:50;;;;;;;10.43;7.50;;;;;;;14.97;54.92;97330.91;3402915;29;20044;-78
2021/10/22 04:08:31;;;;;;;12.48;8.52;;;;;;;14.97;55.24;97338.97;3402140;29;20086;-83
2021/10/22 04:10:12;;;;;;;10.80;8.13;;;;;;;14.96;55.09;97335.50;3399276;29;20051;-79
2021/10/22 04:11:53;;;;;;;13.05;7.60;;;;;;;14.99;55.46;97328.75;3403082;29;20598;-77
2021/10/22 04:13:34;;;;;;;13.40;7.83;;;;;;;15.06;55.16;97348.03;3403097;29;20039;-79
2021/10/22 04:15:14;;;;;;;9.20;7.03;;;;;;;15.12;55.03;97338.84;3401358;29;20077;-80
2021/10/22 04:16:56;;;;;;;9.93;8.50;;;;;;;15.03;54.99;97330.63;3399626;29;20044;-80
2021/10/22 04:18:37;;;;;;;11.68;8.32;;;;;;;15.07;54.96;97338.88;3399558;29;20051;-78
2021/10/22 04:20:18;;;;;;;16.15;8.80;;;;;;;15.03;54.80;97335.19;3393061;29;20487;-77
2021/10/22 04:21:59;;;;;;;17.33;9.07;;;;;;;15.00;55.02;97351.84;3389256;29;20107;-78
2021/10/22 04:23:40;;;;;;;17.45;8.23;;;;;;;14.95;54.99;97343.84;3389927;29;20105;-80
2021/10/22 04:25:20;;;;;;;12.75;8.02;;;;;;;14.98;55.21;97349.44;3362288;29;20064;-78
2021/10/22 04:27:02;;;;;;;11.00;8.55;;;;;;;14.98;55.09;97354.78;3380820;29;20056;-80
2021/10/22 04:28:44;;;;;;;13.85;8.43;;;;;;;14.88;55.11;97332.63;3385626;29;20527;-83
2021/10/22 04:30:26;;;;;;;12.32;7.63;;;;;;;14.91;54.87;97340.09;3373585;29;20050;-79
2021/10/22 04:32:06;;;;;;;13.75;9.02;;;;;;;14.96;55.25;97342.75;3396353;29;20536;-80
2021/10/22 04:33:47;;;;;;;10.27;8.38;;;;;;;14.81;55.06;97320.31;3375299;29;20060;-79
2021/10/22 04:35:30;;;;;;;16.35;8.68;;;;;;;14.79;55.13;97313.63;3386631;29;20635;-80
2021/10/22 04:41:09;;;;;;;12.85;8.85;;;;;;;14.90;55.26;97357.28;3397527;29;20107;-81
2021/10/22 04:42:50;;;;;;;9.70;8.07;;;;;;;14.92;55.21;97355.94;3399522;29;20051;-81
2021/10/22 04:44:31;;;;;;;14.18;8.48;;;;;;;14.90;55.16;97347.34;3397218;29;20119;-79
2021/10/22 04:46:11;;;;;;;15.07;8.50;;;;;;;14.91;55.30;97359.66;3396809;29;20088;-81
2021/10/22 04:47:52;;;;;;;13.90;9.13;;;;;;;14.91;55.29;97350.84;3394581;29;20452;-82
2021/10/22 04:49:33;;;;;;;9.20;8.25;;;;;;;14.91;55.06;97348.16;3400206;29;20036;-81
2021/10/22 04:51:14;;;;;;;15.43;9.10;;;;;;;14.91;55.24;97353.50;3394158;29;20137;-79
2021/10/22 04:52:55;;;;;;;11.38;8.32;;;;;;;14.92;55.52;97361.28;3393262;29;20083;-80
2021/10/22 04:54:35;;;;;;;10.73;7.85;;;;;;;14.94;55.62;97355.63;3390551;29;20500;-81
2021/10/22 04:56:16;;;;;;;15.82;8.77;;;;;;;14.97;55.32;97357.75;3388097;29;20447;-79
2021/10/22 04:57:57;;;;;;;13.77;8.75;;;;;;;14.97;55.40;97360.44;3398704;29;20090;-83
2021/10/22 04:59:39;;;;;;;13.02;8.23;;;;;;;14.95;55.48;97371.44;3391999;29;20185;-82
2021/10/22 05:01:22;;;;;;;14.00;8.55;;;;;;;14.97;55.58;97369.31;3386608;29;20127;-80
2021/10/22 05:03:03;;;;;;;10.15;8.13;;;;;;;15.00;55.50;97373.31;3359689;29;20525;-79
2021/10/22 05:04:43;;;;;;;19.90;9.40;;;;;;;14.80;55.39;97337.50;3376240;29;20124;-80
2021/10/22 05:06:24;;;;;;;13.30;8.32;;;;;;;15.04;55.28;97375.13;3387593;29;20051;-81
2021/10/22 05:08:06;;;;;;;12.77;7.70;;;;;;;15.04;55.36;97366.28;3388480;29;20401;-80
2021/10/22 05:09:47;;;;;;;;;;;;;;;15.14;55.18;97379.63;3369080;29;20094;-77
2021/10/22 05:11:28;;;;;;;12.70;7.85;;;;;;;15.09;55.19;97376.97;3381923;29;20367;-83
2021/10/22 05:13:09;;;;;;;15.30;9.27;;;;;;;15.09;55.04;97374.28;3378351;29;20060;-80
2021/10/22 05:14:50;;;;;;;10.90;8.35;;;;;;;15.15;56.00;97381.19;3376281;29;20548;-80
2021/10/22 05:16:30;;;;;;;17.42;8.43;;;;;;;15.20;55.54;97383.03;3375807;29;20044;-81
2021/10/22 05:18:11;;;;;;;16.42;9.30;;;;;;;15.26;55.57;97376.56;3387515;29;20067;-78
2021/10/22 05:19:53;;;;;;;12.73;8.85;;;;;;;15.11;55.65;97355.25;3379906;29;20131;-76
2021/10/22 05:21:34;;;;;;;13.45;7.95;;;;;;;15.39;55.61;97388.53;3381419;29;20032;-80
2021/10/22 05:23:14;;;;;;;13.82;7.85;;;;;;;15.41;55.27;97397.09;3374681;29;20050;-75
2021/10/22 05:24:57;;;;;;;13.82;7.65;;;;;;;15.43;55.53;97397.63;3385351;29;20048;-79
2021/10/22 05:26:37;;;;;;;9.85;6.57;;;;;;;15.49;55.13;97397.28;3375683;29;20048;-80
2021/10/22 05:28:18;;;;;;;13.80;7.80;;;;;;;15.51;54.83;97394.31;3384116;29;20556;-76
2021/10/22 05:29:59;;;;;;;16.33;8.02;;;;;;;15.50;54.95;97395.41;3377988;29;20059;-74
2021/10/22 05:31:39;;;;;;;18.00;7.78;;;;;;;15.46;54.88;97402.41;3375219;29;20127;-75
2021/10/22 05:33:21;;;;;;;14.20;7.43;;;;;;;15.40;54.99;97390.13;3385211;29;20507;-77
2021/10/22 05:35:02;;;;;;;20.38;8.07;;;;;;;15.40;54.92;97396.28;3387760;29;20048;-73
2021/10/22 05:36:43;;;;;;;15.23;7.75;;;;;;;15.41;55.25;97386.34;3387534;29;20040;-77
2021/10/22 05:38:24;;;;;;;12.65;7.68;;;;;;;15.48;55.28;97402.94;3373346;29;20091;-77
2021/10/22 05:40:06;;;;;;;15.60;8.82;;;;;;;15.55;55.45;97400.72;3385372;29;20101;-76
2021/10/22 05:41:48;;;;;;;16.83;7.13;;;;;;;15.68;55.21;97410.00;3375982;29;20127;-76
2021/10/22 05:43:30;;;;;;;12.13;6.97;;;;;;;15.81;55.49;97413.94;3384108;29;20488;-76
2021/10/22 05:45:13;;;;;;;11.57;7.47;;;;;;;15.82;54.94;97402.09;3383109;29;20075;-76
2021/10/22 05:46:55;;;;;;;12.27;7.47;;;;;;;15.87;54.70;97402.84;3388405;29;20052;-74
2021/10/22 05:48:37;;;;;;;10.52;7.80;;;;;;;15.87;54.90;97418.16;3388168;29;20036;-76
2021/10/22 05:50:18;;;;;;;10.65;7.43;;;;;;;15.85;54.71;97415.78;3386206;29;20551;-76
2021/10/22 05:52:00;;;;;;;;;;;;;;;15.96;54.33;97421.84;3387265;29;20048;-75
2021/10/22 05:53:41;;;;;;;10.55;7.03;;;;;;;16.00;54.14;97411.31;3386220;29;19978;-76
2021/10/22 05:55:24;;;;;;;15.80;7.72;;;;;;;15.99;54.09;97413.19;3386865;29;20055;-76
2021/10/22 05:57:05;;;;;;;12.05;7.38;;;;;;;16.02;53.86;97409.94;3387304;29;20043;-79
2021/10/22 05:58:46;;;;;;;8.48;6.68;;;;;;;16.03;53.94;97424.16;3386829;29;20048;-79
2021/10/22 06:00:28;;;;;;;9.70;7.07;;;;;;;16.02;54.15;97417.19;3385393;29;20113;-78
2021/10/22 06:02:09;;;;;;;;;;;;;;;16.12;54.12;97425.94;3387620;29;20040;-78
2021/10/22 06:03:52;;;;;;;10.70;7.38;;;;;;;16.09;53.38;97418.47;3387166;29;19987;-78
2021/10/22 06:05:37;;;;;;;14.25;8.05;;;;;;;16.00;53.69;97411.31;3385735;29;20032;-78
2021/10/22 06:07:18;;;;;;;12.50;7.38;;;;;;;15.97;53.51;97412.69;3384178;29;20096;-79
2021/10/22 06:08:59;;;;;;;9.30;7.13;;;;;;;16.13;53.36;97424.88;3387267;29;20047;-79
2021/10/22 06:10:41;;;;;;;12.48;8.00;;;;;;;16.53;52.66;97430.03;3385917;29;20040;-80
2021/10/22 06:12:26;;;;;;;10.93;7.25;;;;;;;16.98;51.88;97422.44;3387769;29;20590;-83
2021/10/22 06:14:08;;;;;;;10.88;7.03;;;;;;;17.40;50.88;97421.50;3376308;29;20135;-83
2021/10/22 06:15:51;;;;;;;8.65;7.32;;;;;;;17.85;50.24;97427.22;3385325;29;20044;-78
2021/10/22 06:17:31;;;;;;;15.60;7.13;;;;;;;18.27;49.61;97433.41;3386540;29;20046;-79
2021/10/22 06:19:17;;;;;;;15.60;7.70;;;;;;;18.67;48.88;97441.78;3387224;29;20056;-76
2021/10/22 06:21:06;;;;;;;12.27;7.65;;;;;;;19.05;48.07;97429.91;3387387;29;20047;-77
2021/10/22 06:23:53;;;;;;;13.75;7.22;;;;;;;19.30;47.26;97431.22;3387238;29;20055;-79
2021/10/22 06:24:52;;;;;;;12.45;6.55;;;;;;;19.61;46.55;97434.75;3387985;29;20040;-80
2021/10/22 06:26:39;;;;;;;9.60;6.83;;;;;;;19.77;45.77;97439.81;3386397;29;20043;-78
2021/10/22 06:28:22;;;;;;;8.32;6.15;;;;;;;19.98;44.97;97440.06;3387471;29;20083;-77
2021/10/22 06:30:07;;;;;;;11.55;6.50;;;;;;;20.12;44.52;97445.41;3388627;29;20072;-77
2021/10/22 06:31:49;;;;;;;12.55;7.18;;;;;;;20.30;44.34;97446.25;3390831;29;20051;-81
2021/10/22 06:33:30;;;;;;;9.85;5.68;;;;;;;20.42;44.06;97447.25;3401698;29;20043;-74
2021/10/22 06:35:13;;;;;;;8.50;5.95;;;;;;;20.45;43.33;97443.91;3391467;29;20119;-74
2021/10/22 06:36:54;;;;;;;9.20;6.32;;;;;;;20.52;43.37;97445.34;3386490;29;20075;-82
2021/10/22 06:38:35;;;;;;;6.95;5.95;;;;;;;20.63;43.00;97455.63;3388342;29;20036;-81
2021/10/22 06:40:16;;;;;;;9.48;5.55;;;;;;;20.71;42.69;97455.94;3376315;29;20056;-81
2021/10/22 06:41:57;;;;;;;11.33;6.20;;;;;;;20.80;42.11;97449.41;3387290;29;20051;-80
2021/10/22 06:43:40;;;;;;;14.27;6.10;;;;;;;20.69;42.48;97453.56;3390690;29;20084;-81
2021/10/22 06:45:21;;;;;;;11.48;6.38;;;;;;;20.72;42.10;97452.91;3390451;29;20066;-80
2021/10/22 06:47:02;;;;;;;6.77;5.70;;;;;;;20.68;42.27;97451.97;3390836;29;20440;-82
2021/10/22 06:48:44;;;;;;;7.57;5.77;;;;;;;20.49;42.37;97454.91;3391047;29;20146;-82
2021/10/22 06:50:25;;;;;;;12.70;6.22;;;;;;;20.11;42.79;97454.59;3390343;29;20303;-81
2021/10/22 06:52:06;;;;;;;12.03;5.60;;;;;;;19.64;43.59;97467.69;3389613;29;20599;-81
2021/10/22 06:53:46;;;;;;;7.60;5.50;;;;;;;19.31;44.49;97470.63;3390603;29;20139;-82
2021/10/22 06:55:27;;;;;;;6.10;5.25;;;;;;;19.11;44.86;97478.09;3392710;29;20055;-81
2021/10/22 06:57:08;;;;;;;10.25;5.82;;;;;;;19.02;45.02;97468.31;3379489;29;20048;-80
2021/10/22 06:58:48;;;;;;;8.90;5.40;;;;;;;19.12;45.25;97473.50;3385134;29;20052;-80
2021/10/22 07:00:29;;;;;;;5.43;4.50;;;;;;;19.28;44.65;97473.94;3390524;29;20119;-83
2021/10/22 07:02:10;;;;;;;7.18;5.72;;;;;;;19.41;44.31;97473.09;3390346;29;20393;-81
2021/10/22 07:03:51;;;;;;;5.97;4.63;;;;;;;19.36;44.08;97470.50;3389134;29;20119;-81
2021/10/22 07:07:16;;;;;;;7.80;4.55;;;;;;;19.51;44.03;97480.94;3389239;29;20068;-81
2021/10/22 07:08:57;;;;;;;8.25;3.58;;;;;;;19.55;43.66;97481.94;3386669;29;20150;-81
2021/10/22 07:10:39;;;;;;;9.35;4.07;;;;;;;19.52;43.90;97487.97;3389972;29;20480;-82
2021/10/22 07:12:27;;;;;;;5.85;3.10;;;;;;;19.33;43.75;97480.03;3389841;29;20105;-82
2021/10/22 07:14:08;;;;;;;7.10;3.88;;;;;;;19.15;44.10;97499.88;3390128;29;20527;-80
2021/10/22 07:15:49;;;;;;;8.63;3.43;;;;;;;18.93;44.13;97497.94;3390002;29;20130;-80
2021/10/22 07:17:30;;;;;;;6.57;3.75;;;;;;;18.69;44.62;97498.97;3388933;29;20035;-81
2021/10/22 07:19:10;;;;;;;5.28;3.88;;;;;;;18.51;45.08;97492.56;3386390;29;20079;-81
2021/10/22 07:20:51;;;;;;;3.63;3.13;;;;;;;18.41;45.48;97497.38;3389751;29;20142;-82
2021/10/22 07:22:33;;;;;;;10.40;4.57;;;;;;;18.26;45.32;97493.06;3390008;29;20044;-79
2021/10/22 07:24:20;;;;;;;8.35;4.35;;;;;;;18.16;45.59;97496.75;3390244;29;20040;-81
2021/10/22 07:26:01;;;;;;;5.28;3.83;;;;;;;18.04;45.50;97488.34;3390355;29;20075;-81
2021/10/22 07:27:42;;;;;;;5.03;3.90;;;;;;;17.92;45.72;97506.91;3390533;29;20052;-81
2021/10/22 07:29:23;;;;;;;6.20;3.97;;;;;;;18.02;45.62;97522.91;3390123;29;20071;-81
2021/10/22 07:31:04;;;;;;;6.00;3.33;;;;;;;17.97;45.23;97514.91;3389382;29;20043;-82
2021/10/22 07:32:47;;;;;;;7.40;3.13;;;;;;;18.18;44.93;97510.72;3390079;29;20040;-80
2021/10/22 07:34:27;;;;;;;4.47;2.35;;;;;;;18.67;43.79;97521.94;3390214;29;20819;-80
2021/10/22 07:36:12;;;;;;;5.30;3.00;;;;;;;19.07;42.63;97498.72;3390515;29;20043;-81
2021/10/22 07:37:55;;;;;;;3.50;1.55;;;;;;;19.63;41.47;97512.84;3389237;29;20055;-82
2021/10/22 07:39:38;;;;;;;4.65;1.90;;;;;;;20.32;40.68;97526.00;3388300;29;20051;-80
2021/10/22 07:41:21;;;;;;;1.60;1.50;;;;;;;21.03;39.62;97533.25;3390906;29;20058;-82
2021/10/22 07:43:03;;;;;;;3.42;1.80;;;;;;;21.76;38.50;97517.19;3389816;29;20036;-81
2021/10/22 07:44:52;;;;;;;6.22;2.22;;;;;;;22.35;37.12;97517.38;3389887;29;20044;-81
2021/10/22 07:46:33;;;;;;;5.22;1.77;;;;;;;22.93;36.28;97520.47;3389077;29;20056;-82
2021/10/22 07:48:14;;;;;;;6.37;2.03;;;;;;;23.32;35.83;97514.97;3374173;29;20122;-82
2021/10/22 07:49:55;;;;;;;2.27;1.50;;;;;;;23.56;34.18;97525.16;3388131;29;20139;-82
2021/10/22 07:51:36;;;;;;;3.03;1.33;;;;;;;23.47;34.30;97523.31;3390819;29;20128;-83
2021/10/22 07:53:17;;;;;;;1.77;1.33;;;;;;;23.45;34.53;97517.41;3390090;29;20044;-84
2021/10/22 07:54:59;;;;;;;2.83;1.53;;;;;;;23.41;34.06;97508.31;3390233;29;20504;-83
2021/10/22 07:56:43;;;;;;;1.48;1.05;;;;;;;23.47;34.48;97507.00;3390207;29;20051;-82
2021/10/22 07:58:24;;;;;;;4.22;2.03;;;;;;;23.71;34.26;97510.94;3375492;29;20052;-83
2021/10/22 08:00:08;;;;;;;4.47;1.37;;;;;;;23.74;33.55;97526.63;3387691;29;20059;-82